Wayland, MA (01778)

6:38 PM EST on February 19, 2018 (GMT -0500)
Bow Road | | Change Station

Elev 164 ft 42.37 °N, 71.37 °W | Updated 2 seconds ago

Mostly Cloudy
Mostly Cloudy
45.5 °F
Feels Like 42 °F
N
6.5
Wind Variable Wind from SW
Gusts 7.4 mph

Today
High -- | Low -- °F
--% Chance of Precip.
Yesterday
High -- | Low -- °F
Precip. -- in
Pressure 30.37 in
Visibility 10.0 miles
Clouds Scattered Clouds 4800 ft
Mostly Cloudy 7500 ft
Overcast 9000 ft
Windchill 42 °F
Dew Point 44 °F
Humidity 96%
Rainfall 0.00 in
Snow Depth Not available.
6:36 AM 5:22 PM
Waxing Crescent, 17% visible
METAR KBED 192256Z 21009KT 10SM SCT048 BKN075 OVC090 08/03 A3032 RMK AO2 SLP283 T00780028
Pressure 30.37 in
Visibility 10.0 miles
Clouds Scattered Clouds 4800 ft
Mostly Cloudy 7500 ft
Overcast 9000 ft
Windchill 42 °F
Dew Point 44 °F
Humidity 96%
Rainfall 0.00 in
Snow Depth Not available.
6:36 AM 5:22 PM
Waxing Crescent, 17% visible
METAR KBED 192256Z 21009KT 10SM SCT048 BKN075 OVC090 08/03 A3032 RMK AO2 SLP283 T00780028

Get Severe Weather Alerts

Thanks for signing up!

Be on the lookout for a verification email in your inbox.

You'll start receiving the daily forecast at 6 AM.

×

10-Day Weather Forecast

Almanac

Astronomy

Feb. 19, 2018 Rise Set
Actual Time
Civil Twilight
Nautical Twilight
Astronomical Twilight
Moon
Length of Visible Light
Length of Day
Tomorrow will be .
, % of the Moon is Illuminated

Today's Extremes

State Highs State Lows

Community

WunderPhotos

Category 6

Welcome to Category 6. This is the collective home for Weather Underground's featured writeups by Dr. Jeff Masters (right), Bob Henson (left), Chris Burt, and other regular contributors.

Nearby

Air Quality

  Air Quality AQ Index Pollutant
Not available.

Snow Depth

Station Depth Elevation

Earthquake Activity

City Distance Mag. Time & Date
Minimum magnitude displayed is 2.5.

Coastal Water Temperatures

Place Temperature

Stations

Nearby Weather Stations

Station Location Temp. Windchill Dew Point Humidity Wind Precip. Elev Updated Type
                   

Watches & Warnings

There are currently no watches in effect.